Rechercher aéroport 
image banner adimage banner adimage banner ad
image banner ad

KINS - Creech Afb

Situé à Indian Springs, United States

ICAO - INS, IATA - INS

Données fournies par Airmate  

Information générale

Coordonnées: N36°35'11" W115°40'39"
Élévation : 3134 feet MSL.
Variation magnétique : 15° East
Voir autres Aéroports à Nevada

Données opérationnelles

Special qualification required
Heure actuelle UTC:
Heure actuelle locale:
Météo
METAR: KINS 290758Z AUTO 02004KT 10SM BKN150 31/09 A3003 RMK AO2 SLP112 T03050094 403650217 $
TAF: TAF AMD KINS 290609Z 2906/3011 36012KT 9999 VCSH FEW080 BKN120 QNH2998INS SHRA OMTNS BECMG 2910/2911 30009KT 9999 NSW BKN120 QNH2998INS BECMG 2916/2917 10009KT 9999 FEW100 SCT120 QNH2996INS BECMG 2919/2920 13012KT 9999 FEW100 BKN250 QNH2987INS TS OMTNS TEMPO 2922/3002 VRB20G35KT VCTS BKN100CB BECMG 3001/3002 VRB25G40KT 8000 -TSRA BLDU SCT050 BKN080CB QNH2987INS BECMG 3007/3008 16020G35KT 9999 VCTS SCT100CB BKN250 QNH2994INS TX38/2923Z TN22/2913Z
Voir NOTAMs / SUP AIP / TFR affectant cet aéroport [VIEW]
Fréquences de communication: [VIEW]

Pistes:

Identifiant RWYQFULongueur (ft)Largeur (ft)SurfaceLDA (ft)
0893°9002150ASPH
26273°9002150ASPH
135476100ASPH
315476100ASPH

Coordonnées de l'aéroport

Adresse: Indian Springs United States

Vue satellite de KINS